createdAt,value
2016-02-29T00:00:18.496Z,53.43
2016-02-29T00:01:18.451Z,53.43
2016-02-29T00:02:18.439Z,53.62
2016-02-29T00:03:18.410Z,53.62
2016-02-29T00:04:18.428Z,53.62
2016-02-29T00:05:18.353Z,53.62
2016-02-29T00:06:18.340Z,53.62
2016-02-29T00:07:18.311Z,53.53
2016-02-29T00:08:18.298Z,53.53
2016-02-29T00:09:18.254Z,53.43
2016-02-29T00:10:18.289Z,53.43
2016-02-29T00:11:18.198Z,53.43
2016-02-29T00:12:18.184Z,53.43
2016-02-29T00:13:18.156Z,53.53
2016-02-29T00:14:18.128Z,53.53
2016-02-29T00:15:18.114Z,53.62
2016-02-29T00:16:18.086Z,53.53
2016-02-29T00:17:18.058Z,53.62
2016-02-29T00:18:18.029Z,53.43
2016-02-29T00:19:18.000Z,53.53
2016-02-29T00:20:17.972Z,53.62
2016-02-29T00:21:17.958Z,53.72
2016-02-29T00:22:17.946Z,53.53
2016-02-29T00:23:18.105Z,53.53
2016-02-29T00:24:17.873Z,53.53
2016-02-29T00:25:17.907Z,53.53
2016-02-29T00:26:17.831Z,53.24
2016-02-29T00:27:17.803Z,53.53
2016-02-29T00:28:17.774Z,53.53
2016-02-29T00:29:17.746Z,53.43
2016-02-29T00:30:17.723Z,53.53
2016-02-29T00:31:17.709Z,53.53
2016-02-29T00:32:17.681Z,53.43
2016-02-29T00:33:17.652Z,53.43
2016-02-29T00:34:17.623Z,53.62
2016-02-29T00:35:17.595Z,53.33
2016-02-29T00:36:17.566Z,53.33
2016-02-29T00:37:17.553Z,53.33
2016-02-29T00:38:17.525Z,53.33
2016-02-29T00:39:17.511Z,53.72
2016-02-29T00:40:17.467Z,53.43
2016-02-29T00:41:17.455Z,53.53
2016-02-29T00:42:17.427Z,53.81
2016-02-29T00:43:17.397Z,53.43
2016-02-29T00:44:17.369Z,53.81
2016-02-29T00:45:17.356Z,53.62
2016-02-29T00:46:17.327Z,53.81
2016-02-29T00:47:17.315Z,53.43
2016-02-29T00:48:17.286Z,53.53
2016-02-29T00:49:17.241Z,53.53
2016-02-29T00:50:17.229Z,53.33
2016-02-29T00:51:17.201Z,53.53
2016-02-29T00:52:17.171Z,53.33
2016-02-29T00:53:17.143Z,53.43
2016-02-29T00:54:17.115Z,53.43
2016-02-29T00:55:17.101Z,53.53
2016-02-29T00:56:17.089Z,53.53
2016-02-29T00:57:17.045Z,53.72
2016-02-29T00:58:17.016Z,53.62
2016-02-29T00:59:17.003Z,53.81
2016-02-29T01:00:16.975Z,53.53
2016-02-29T01:01:16.945Z,53.81
2016-02-29T01:02:16.917Z,53.72
2016-02-29T01:03:16.920Z,53.69
2016-02-29T01:04:16.861Z,53.72
2016-02-29T01:05:16.863Z,53.72
2016-02-29T01:06:16.819Z,53.81
2016-02-29T01:07:16.790Z,53.81
2016-02-29T01:08:16.761Z,53.81
2016-02-29T01:09:16.749Z,53.91
2016-02-29T01:10:16.735Z,53.88
2016-02-29T01:11:16.722Z,54
2016-02-29T01:12:16.663Z,53.81
2016-02-29T01:13:16.635Z,53.78
2016-02-29T01:14:16.638Z,53.72
2016-02-29T01:15:16.593Z,53.72
2016-02-29T01:16:16.564Z,53.62
2016-02-29T01:17:16.536Z,54
2016-02-29T01:18:16.508Z,53.97
2016-02-29T01:19:16.510Z,53.78
2016-02-29T01:20:16.465Z,53.88
2016-02-29T01:21:16.438Z,53.81
2016-02-29T01:22:16.424Z,53.91
2016-02-29T01:23:16.396Z,53.88
2016-02-29T01:24:16.368Z,53.81
2016-02-29T01:25:16.604Z,53.78
2016-02-29T01:26:16.388Z,53.78
2016-02-29T01:27:16.298Z,53.81
2016-02-29T01:28:16.269Z,54
2016-02-29T01:29:16.239Z,54
2016-02-29T01:30:16.211Z,53.72
2016-02-29T01:31:16.183Z,53.72
2016-02-29T01:32:16.170Z,53.78
2016-02-29T01:33:16.141Z,53.97
2016-02-29T01:34:16.113Z,53.81
2016-02-29T01:35:16.084Z,53.81
2016-02-29T01:36:16.056Z,53.69
2016-02-29T01:37:16.028Z,53.78
2016-02-29T01:38:16.014Z,53.78
2016-02-29T01:39:15.985Z,53.88
2016-02-29T01:40:15.972Z,53.78
2016-02-29T01:41:15.944Z,53.59
2016-02-29T01:42:15.916Z,53.81
2016-02-29T01:43:15.886Z,53.78
2016-02-29T01:44:15.858Z,53.91
2016-02-29T01:45:15.846Z,53.78
2016-02-29T01:46:15.817Z,53.78
2016-02-29T01:47:15.788Z,53.59
2016-02-29T01:48:15.760Z,53.78
2016-02-29T01:49:15.732Z,53.69
2016-02-29T01:50:15.546Z,53.69
2016-02-29T01:51:15.674Z,53.59
2016-02-29T01:52:15.661Z,53.69
2016-02-29T01:53:15.633Z,53.78
2016-02-29T01:54:15.605Z,54.17
2016-02-29T01:55:15.576Z,53.97
2016-02-29T01:56:15.547Z,53.78
2016-02-29T01:57:15.535Z,53.78
2016-02-29T01:58:15.506Z,53.97
2016-02-29T01:59:15.477Z,54.07
2016-02-29T02:00:15.462Z,54.17
2016-02-29T02:01:15.403Z,53.69
2016-02-29T02:02:15.375Z,53.69
2016-02-29T02:03:15.331Z,53.97
2016-02-29T02:04:15.303Z,53.97
2016-02-29T02:05:15.261Z,53.59
2016-02-29T02:06:15.227Z,53.69
2016-02-29T02:07:15.194Z,53.69
2016-02-29T02:08:15.159Z,53.69
2016-02-29T02:09:15.125Z,54.07
2016-02-29T02:10:15.107Z,54.07
2016-02-29T02:11:15.077Z,53.69
2016-02-29T02:12:15.063Z,53.59
2016-02-29T02:13:15.016Z,54.17
2016-02-29T02:14:15.001Z,53.59
2016-02-29T02:15:14.955Z,54.17
2016-02-29T02:16:15.145Z,54.17
2016-02-29T02:17:14.912Z,53.97
2016-02-29T02:18:14.899Z,54.26
2016-02-29T02:19:14.853Z,54.17
2016-02-29T02:20:14.840Z,54.07
2016-02-29T02:21:14.858Z,54.07
2016-02-29T02:22:14.784Z,54.07
2016-02-29T02:23:14.754Z,54.07
2016-02-29T02:24:14.726Z,53.97
2016-02-29T02:25:14.714Z,54.17
2016-02-29T02:26:14.684Z,54.07
2016-02-29T02:27:14.656Z,53.97
2016-02-29T02:28:14.627Z,53.97
2016-02-29T02:29:14.599Z,54.26
2016-02-29T02:30:14.585Z,54.17
2016-02-29T02:31:14.558Z,54.17
2016-02-29T02:32:14.545Z,54.07
2016-02-29T02:33:14.500Z,53.88
2016-02-29T02:34:14.488Z,54.07
2016-02-29T02:35:14.443Z,53.97
2016-02-29T02:36:14.430Z,53.97
2016-02-29T02:37:14.402Z,53.97
2016-02-29T02:38:14.373Z,54.17
2016-02-29T02:39:14.360Z,54.17
2016-02-29T02:40:14.316Z,53.78
2016-02-29T02:41:14.302Z,54.07
2016-02-29T02:42:14.274Z,54.07
2016-02-29T02:43:14.246Z,54.07
2016-02-29T02:44:14.218Z,53.88
2016-02-29T02:45:14.188Z,53.78
2016-02-29T02:46:14.176Z,53.88
2016-02-29T02:47:14.148Z,54.26
2016-02-29T02:48:14.118Z,54.07
2016-02-29T02:49:14.089Z,54.26
2016-02-29T02:50:14.077Z,54.45
2016-02-29T02:51:14.048Z,53.88
2016-02-29T02:52:14.020Z,54.36
2016-02-29T02:53:13.992Z,54.36
2016-02-29T02:54:13.962Z,53.88
2016-02-29T02:55:13.965Z,54.55
2016-02-29T02:56:13.922Z,54.55
2016-02-29T02:57:13.908Z,54.36
2016-02-29T02:58:13.865Z,54.55
2016-02-29T02:59:13.867Z,54.17
2016-02-29T03:00:13.839Z,54.55
2016-02-29T03:01:13.794Z,53.97
2016-02-29T03:02:13.766Z,54.55
2016-02-29T03:03:13.753Z,54.17
2016-02-29T03:04:13.709Z,54.55
2016-02-29T03:05:13.696Z,54.36
2016-02-29T03:06:13.667Z,54.55
2016-02-29T03:07:13.639Z,54.07
2016-02-29T03:08:13.610Z,54.36
2016-02-29T03:09:13.582Z,54.64
2016-02-29T03:10:13.569Z,54.74
2016-02-29T03:11:13.540Z,54.36
2016-02-29T03:12:13.511Z,54.64
2016-02-29T03:13:13.483Z,54.74
2016-02-29T03:14:13.454Z,54.55
2016-02-29T03:15:13.426Z,54.36
2016-02-29T03:16:13.413Z,54.55
2016-02-29T03:17:13.385Z,54.83
2016-02-29T03:18:13.574Z,54.93
2016-02-29T03:19:13.343Z,54.74
2016-02-29T03:20:13.314Z,54.83
2016-02-29T03:21:13.285Z,54.64
2016-02-29T03:22:13.256Z,54.83
2016-02-29T03:23:13.245Z,54.74
2016-02-29T03:24:13.215Z,54.74
2016-02-29T03:25:13.203Z,54.83
2016-02-29T03:26:13.158Z,54.83
2016-02-29T03:27:13.130Z,54.74
2016-02-29T03:28:13.101Z,54.64
2016-02-29T03:29:13.073Z,55.02
2016-02-29T03:30:13.060Z,55.02
2016-02-29T03:31:13.031Z,55.12
2016-02-29T03:32:13.003Z,55.12
2016-02-29T03:33:12.974Z,55.12
2016-02-29T03:34:12.962Z,55.12
2016-02-29T03:35:12.933Z,55.12
2016-02-29T03:36:12.905Z,54.74
2016-02-29T03:37:12.875Z,54.83
2016-02-29T03:38:12.847Z,54.93
2016-02-29T03:39:12.818Z,54.83
2016-02-29T03:40:12.805Z,54.93
2016-02-29T03:41:12.776Z,55.12
2016-02-29T03:42:12.763Z,55.12
2016-02-29T03:43:12.720Z,54.93
2016-02-29T03:44:12.691Z,54.93
2016-02-29T03:45:12.662Z,54.74
2016-02-29T03:46:12.649Z,54.74
2016-02-29T03:47:12.621Z,54.93
2016-02-29T03:48:12.593Z,54.83
2016-02-29T03:49:12.580Z,54.83
2016-02-29T03:50:12.551Z,54.83
2016-02-29T03:51:12.523Z,54.64
2016-02-29T03:52:12.493Z,55.02
2016-02-29T03:53:12.466Z,54.93
2016-02-29T03:54:12.437Z,54.93
2016-02-29T03:55:12.424Z,54.74
2016-02-29T03:56:12.395Z,54.74
2016-02-29T03:57:12.367Z,54.64
2016-02-29T03:58:12.339Z,54.83
2016-02-29T03:59:12.326Z,54.64
2016-02-29T04:00:12.297Z,54.64
2016-02-29T04:01:12.253Z,54.74
2016-02-29T04:02:12.240Z,54.93
2016-02-29T04:03:12.212Z,54.93
2016-02-29T04:04:12.198Z,54.64
2016-02-29T04:05:12.154Z,55.12
2016-02-29T04:06:12.142Z,54.93
2016-02-29T04:07:12.113Z,54.55
2016-02-29T04:08:12.083Z,54.93
2016-02-29T04:09:12.055Z,54.74
2016-02-29T04:10:12.042Z,54.83
2016-02-29T04:11:12.029Z,54.93
2016-02-29T04:12:11.985Z,54.64
2016-02-29T04:13:11.972Z,54.74
2016-02-29T04:14:11.944Z,54.64
2016-02-29T04:15:12.071Z,54.74
2016-02-29T04:16:11.887Z,54.83
2016-02-29T04:17:11.857Z,54.64
2016-02-29T04:18:11.830Z,54.64
2016-02-29T04:19:11.801Z,54.55
2016-02-29T04:20:11.773Z,54.74
2016-02-29T04:21:11.760Z,54.64
2016-02-29T04:22:11.731Z,54.83
2016-02-29T04:23:11.702Z,54.74
2016-02-29T04:24:11.689Z,54.93
2016-02-29T04:25:11.661Z,54.83
2016-02-29T04:26:11.617Z,54.74
2016-02-29T04:27:11.604Z,54.83
2016-02-29T04:28:11.577Z,54.55
2016-02-29T04:29:11.547Z,54.55
2016-02-29T04:30:11.519Z,54.83
2016-02-29T04:31:11.491Z,54.74
2016-02-29T04:32:11.462Z,54.83
2016-02-29T04:33:11.449Z,54.74
2016-02-29T04:34:11.435Z,54.83
2016-02-29T04:35:11.393Z,54.83
2016-02-29T04:36:11.363Z,54.83
2016-02-29T04:37:11.351Z,54.64
2016-02-29T04:38:11.337Z,54.83
2016-02-29T04:39:11.309Z,54.64
2016-02-29T04:40:11.265Z,54.64
2016-02-29T04:41:11.234Z,54.83
2016-02-29T04:42:11.220Z,54.83
2016-02-29T04:43:11.192Z,55.02
2016-02-29T04:44:11.164Z,54.93
2016-02-29T04:45:11.150Z,54.93
2016-02-29T04:46:11.122Z,54.93
2016-02-29T04:47:11.093Z,54.93
2016-02-29T04:48:11.064Z,54.64
2016-02-29T04:49:11.037Z,54.74
2016-02-29T04:50:10.851Z,54.93
2016-02-29T04:51:10.995Z,54.64
2016-02-29T04:52:10.950Z,55.02
2016-02-29T04:53:10.938Z,54.93
2016-02-29T04:54:10.909Z,54.74
2016-02-29T04:55:10.880Z,54.83
2016-02-29T04:56:10.852Z,54.93
2016-02-29T04:57:10.839Z,55.02
2016-02-29T04:58:10.811Z,54.83
2016-02-29T04:59:10.797Z,55.02
2016-02-29T05:00:10.769Z,54.74
2016-02-29T05:01:10.740Z,54.93
2016-02-29T05:02:10.697Z,55.02
2016-02-29T05:03:10.668Z,54.8
2016-02-29T05:04:10.655Z,55.02
2016-02-29T05:05:10.626Z,55.12
2016-02-29T05:06:10.616Z,54.93
2016-02-29T05:07:10.572Z,54.74
2016-02-29T05:08:10.543Z,55.02
2016-02-29T05:09:10.530Z,54.93
2016-02-29T05:10:10.502Z,54.74
2016-02-29T05:11:10.489Z,54.93
2016-02-29T05:12:10.585Z,54.93
2016-02-29T05:13:10.431Z,55.02
2016-02-29T05:14:10.387Z,54.93
2016-02-29T05:15:10.376Z,54.74
2016-02-29T05:16:10.346Z,55.02
2016-02-29T05:17:10.318Z,54.83
2016-02-29T05:18:10.289Z,54.74
2016-02-29T05:19:10.276Z,54.83
2016-02-29T05:20:10.247Z,54.93
2016-02-29T05:21:10.219Z,55.02
2016-02-29T05:22:10.206Z,55.12
2016-02-29T05:23:10.161Z,55.02
2016-02-29T05:24:10.164Z,55.12
2016-02-29T05:25:10.120Z,55.02
2016-02-29T05:26:10.091Z,55.12
2016-02-29T05:27:09.969Z,55.02
2016-02-29T05:28:10.035Z,55.02
2016-02-29T05:29:10.022Z,55.12
2016-02-29T05:30:09.993Z,54.93
2016-02-29T05:31:09.964Z,55.12
2016-02-29T05:32:09.935Z,55.02
2016-02-29T05:33:09.923Z,55.02
2016-02-29T05:34:09.880Z,55.02
2016-02-29T05:35:09.866Z,54.74
2016-02-29T05:36:09.838Z,54.93
2016-02-29T05:37:09.809Z,55.02
2016-02-29T05:38:09.780Z,55.02
2016-02-29T05:39:09.768Z,55.12
2016-02-29T05:40:09.739Z,55.02
2016-02-29T05:41:09.710Z,55.02
2016-02-29T05:42:09.713Z,55.12
2016-02-29T05:43:09.668Z,55.31
2016-02-29T05:44:09.625Z,54.93
2016-02-29T05:45:09.611Z,54.83
2016-02-29T05:46:09.584Z,54.64
2016-02-29T05:47:09.555Z,54.74
2016-02-29T05:48:09.526Z,54.64
2016-02-29T05:49:09.498Z,55.02
2016-02-29T05:50:09.485Z,54.83
2016-02-29T05:51:09.456Z,54.83
2016-02-29T05:52:09.428Z,55.19
2016-02-29T05:53:09.415Z,55.21
2016-02-29T05:54:09.370Z,55.31
2016-02-29T05:55:09.342Z,55.12
2016-02-29T05:56:09.328Z,54.64
2016-02-29T05:57:09.438Z,54.83
2016-02-29T05:58:09.295Z,55.21
2016-02-29T05:59:09.269Z,55.31
2016-02-29T06:00:09.278Z,55.31
2016-02-29T06:01:11.739Z,55.21
2016-02-29T06:02:09.178Z,54.64
2016-02-29T06:03:09.134Z,54.83
2016-02-29T06:04:09.325Z,54.93
2016-02-29T06:05:09.108Z,54.71
2016-02-29T06:06:09.065Z,54.64
2016-02-29T06:07:09.036Z,54.74
2016-02-29T06:08:09.008Z,54.64
2016-02-29T06:09:08.994Z,54.64
2016-02-29T06:10:08.966Z,54.64
2016-02-29T06:11:08.938Z,55.21
2016-02-29T06:12:08.972Z,54.64
2016-02-29T06:13:08.896Z,54.64
2016-02-29T06:14:08.868Z,54.93
2016-02-29T06:15:08.838Z,54.64
2016-02-29T06:16:08.827Z,55.21
2016-02-29T06:17:08.782Z,55.12
2016-02-29T06:18:08.761Z,54.83
2016-02-29T06:19:08.733Z,54.71
2016-02-29T06:20:08.704Z,55.21
2016-02-29T06:21:08.676Z,55.31
2016-02-29T06:22:08.646Z,54.64
2016-02-29T06:23:08.634Z,55.12
2016-02-29T06:24:08.605Z,55.31
2016-02-29T06:25:08.577Z,54.64
2016-02-29T06:26:08.548Z,54.9
2016-02-29T06:27:08.551Z,54.93
2016-02-29T06:28:08.506Z,54.55
2016-02-29T06:29:08.478Z,55.21
2016-02-29T06:30:08.450Z,55.28
2016-02-29T06:31:08.421Z,55.31
2016-02-29T06:32:08.408Z,55.02
2016-02-29T06:33:08.364Z,55.41
2016-02-29T06:34:08.366Z,55.31
2016-02-29T06:35:08.322Z,55.31
2016-02-29T06:36:08.294Z,54.83
2016-02-29T06:37:08.281Z,55.31
2016-02-29T06:38:08.237Z,54.93
2016-02-29T06:39:08.208Z,55.41
2016-02-29T06:40:08.195Z,55.31
2016-02-29T06:41:08.166Z,55.31
2016-02-29T06:42:08.232Z,55.28
2016-02-29T06:43:08.110Z,54.64
2016-02-29T06:44:08.081Z,54.64
2016-02-29T06:45:08.068Z,55.12
2016-02-29T06:46:08.039Z,55.02
2016-02-29T06:47:08.010Z,55.28
2016-02-29T06:48:07.999Z,55.31
2016-02-29T06:49:07.954Z,54.83
2016-02-29T06:50:07.925Z,55.12
2016-02-29T06:51:07.912Z,54.83
2016-02-29T06:52:07.884Z,54.93
2016-02-29T06:53:07.871Z,55.12
2016-02-29T06:54:07.826Z,55.12
2016-02-29T06:55:07.798Z,54.55
2016-02-29T06:56:07.785Z,54.74
2016-02-29T06:57:07.757Z,55.12
2016-02-29T06:58:07.728Z,55.12
2016-02-29T06:59:07.699Z,54.83
2016-02-29T07:00:07.670Z,54.74
2016-02-29T07:01:07.893Z,54.93
2016-02-29T07:02:07.629Z,54.93
2016-02-29T07:03:07.617Z,55.02
2016-02-29T07:04:07.572Z,55.02
2016-02-29T07:05:07.544Z,54.93
2016-02-29T07:06:07.547Z,54.93
2016-02-29T07:07:07.517Z,55.12
2016-02-29T07:08:07.489Z,54.74
2016-02-29T07:09:07.445Z,54.83
2016-02-29T07:10:07.416Z,54.83
2016-02-29T07:11:07.403Z,54.93
2016-02-29T07:12:07.375Z,54.74
2016-02-29T07:13:07.346Z,54.93
2016-02-29T07:14:07.318Z,54.83
2016-02-29T07:15:07.289Z,54.93
2016-02-29T07:16:07.277Z,54.93
2016-02-29T07:17:07.247Z,54.93
2016-02-29T07:18:07.219Z,54.83
2016-02-29T07:19:07.191Z,55.02
2016-02-29T07:20:07.178Z,54.93
2016-02-29T07:21:07.149Z,54.64
2016-02-29T07:22:07.152Z,54.93
2016-02-29T07:23:07.092Z,54.64
2016-02-29T07:24:07.079Z,54.83
2016-02-29T07:25:07.035Z,54.83
2016-02-29T07:26:07.021Z,54.64
2016-02-29T07:27:06.994Z,55.12
2016-02-29T07:28:06.965Z,54.74
2016-02-29T07:29:06.937Z,54.83
2016-02-29T07:30:06.907Z,54.83
2016-02-29T07:31:06.879Z,54.83
2016-02-29T07:32:06.851Z,54.74
2016-02-29T07:33:06.837Z,54.83
2016-02-29T07:34:06.809Z,54.64
2016-02-29T07:35:06.781Z,54.64
2016-02-29T07:36:06.752Z,54.93
2016-02-29T07:37:06.739Z,55.02
2016-02-29T07:38:06.711Z,54.74
2016-02-29T07:39:06.681Z,54.8
2016-02-29T07:40:06.498Z,54.55
2016-02-29T07:41:06.625Z,54.74
2016-02-29T07:42:06.597Z,54.74
2016-02-29T07:43:06.630Z,54.83
2016-02-29T07:44:06.555Z,54.83
2016-02-29T07:45:06.527Z,54.64
2016-02-29T07:46:06.498Z,54.74
2016-02-29T07:47:06.469Z,54.64
2016-02-29T07:48:06.456Z,54.93
2016-02-29T07:49:06.413Z,54.74
2016-02-29T07:50:06.399Z,54.83
2016-02-29T07:51:06.371Z,54.93
2016-02-29T07:52:06.357Z,54.83
2016-02-29T07:53:06.313Z,54.74
2016-02-29T07:54:06.301Z,54.83
2016-02-29T07:55:06.272Z,54.64
2016-02-29T07:56:06.243Z,54.64
2016-02-29T07:57:06.215Z,54.64
2016-02-29T07:58:06.437Z,54.74
2016-02-29T07:59:06.174Z,54.93
2016-02-29T08:00:06.145Z,54.74
2016-02-29T08:01:06.116Z,55.12
2016-02-29T08:02:06.087Z,54.74
2016-02-29T08:03:06.262Z,54.55
2016-02-29T08:04:06.030Z,54.83
2016-02-29T08:05:05.861Z,54.83
2016-02-29T08:06:05.990Z,54.74
2016-02-29T08:07:05.976Z,54.83
2016-02-29T08:08:05.931Z,54.83
2016-02-29T08:09:05.919Z,54.83
2016-02-29T08:10:05.890Z,55.12
2016-02-29T08:11:05.862Z,55.02
2016-02-29T08:12:05.834Z,55.02
2016-02-29T08:13:05.805Z,54.93
2016-02-29T08:14:05.776Z,54.64
2016-02-29T08:15:05.747Z,55.02
2016-02-29T08:16:05.735Z,54.74
2016-02-29T08:17:05.705Z,54.74
2016-02-29T08:18:05.693Z,54.83
2016-02-29T08:19:05.649Z,55.12
2016-02-29T08:20:05.621Z,55.12
2016-02-29T08:21:05.607Z,54.64
2016-02-29T08:22:05.579Z,54.64
2016-02-29T08:23:05.565Z,54.55
2016-02-29T08:24:05.538Z,54.74
2016-02-29T08:25:05.494Z,54.83
2016-02-29T08:26:05.480Z,54.36
2016-02-29T08:27:05.452Z,54.74
2016-02-29T08:28:05.424Z,54.55
2016-02-29T08:29:05.395Z,54.45
2016-02-29T08:30:05.365Z,54.64
2016-02-29T08:31:05.353Z,54.07
2016-02-29T08:32:05.325Z,54.36
2016-02-29T08:33:05.312Z,54.26
2016-02-29T08:34:05.268Z,54.45
2016-02-29T08:35:05.254Z,54.45
2016-02-29T08:36:05.070Z,54.45
2016-02-29T08:37:05.197Z,54.45
2016-02-29T08:38:05.184Z,54.45
2016-02-29T08:39:05.140Z,54.55
2016-02-29T08:40:05.128Z,54.64
2016-02-29T08:41:05.099Z,54.07
2016-02-29T08:42:05.070Z,54.07
2016-02-29T08:43:05.042Z,54.07
2016-02-29T08:44:05.028Z,53.97
2016-02-29T08:45:05.001Z,53.88
2016-02-29T08:46:04.972Z,54.17
2016-02-29T08:47:04.944Z,53.88
2016-02-29T08:48:04.914Z,54.45
2016-02-29T08:49:04.902Z,54.17
2016-02-29T08:50:04.872Z,54.36
2016-02-29T08:51:04.844Z,54.17
2016-02-29T08:52:04.815Z,53.88
2016-02-29T08:53:04.788Z,54.36
2016-02-29T08:54:04.900Z,54.07
2016-02-29T08:55:04.746Z,54.36
2016-02-29T08:56:04.718Z,54.26
2016-02-29T08:57:04.688Z,53.88
2016-02-29T08:58:04.660Z,54.26
2016-02-29T08:59:04.631Z,54.26
2016-02-29T09:00:04.618Z,53.97
2016-02-29T09:01:04.591Z,54.07
2016-02-29T09:02:04.577Z,54.17
2016-02-29T09:03:04.533Z,53.97
2016-02-29T09:04:04.504Z,53.97
2016-02-29T09:05:04.491Z,54.17
2016-02-29T09:06:04.290Z,54.07
2016-02-29T09:07:04.450Z,53.88
2016-02-29T09:08:04.405Z,53.97
2016-02-29T09:09:04.377Z,53.88
2016-02-29T09:10:04.363Z,53.97
2016-02-29T09:11:04.366Z,54.07
2016-02-29T09:12:04.305Z,53.97
2016-02-29T09:13:04.293Z,53.97
2016-02-29T09:14:04.249Z,53.78
2016-02-29T09:15:04.236Z,54.17
2016-02-29T09:16:04.192Z,53.88
2016-02-29T09:17:04.179Z,53.69
2016-02-29T09:18:04.165Z,53.88
2016-02-29T09:19:04.138Z,53.69
2016-02-29T09:20:04.094Z,53.59
2016-02-29T09:21:04.096Z,53.97
2016-02-29T09:22:04.037Z,53.78
2016-02-29T09:23:04.023Z,53.78
2016-02-29T09:24:04.010Z,53.88
2016-02-29T09:25:03.965Z,53.78
2016-02-29T09:26:03.953Z,53.78
2016-02-29T09:27:03.910Z,53.78
2016-02-29T09:28:03.896Z,53.88
2016-02-29T09:29:03.868Z,53.78
2016-02-29T09:30:03.839Z,53.78
2016-02-29T09:31:03.810Z,53.78
2016-02-29T09:32:03.797Z,54.1
2016-02-29T09:33:03.770Z,54
2016-02-29T09:34:03.740Z,53.97
2016-02-29T09:35:03.712Z,53.97
2016-02-29T09:36:03.683Z,54.07
2016-02-29T09:37:03.670Z,53.78
2016-02-29T09:38:03.642Z,53.53
2016-02-29T09:39:03.614Z,53.5
2016-02-29T09:40:03.600Z,53.72
2016-02-29T09:41:03.556Z,53.72
2016-02-29T09:42:03.527Z,53.78
2016-02-29T09:43:03.514Z,53.31
2016-02-29T09:44:03.485Z,53.43
2016-02-29T09:45:03.457Z,53.43
2016-02-29T09:46:03.429Z,53.53
2016-02-29T09:47:03.416Z,53.53
2016-02-29T10:16:17.699Z,53.05
2016-02-29T10:17:14.639Z,53.05
2016-02-29T10:18:14.627Z,52.95
2016-02-29T10:19:14.879Z,53.33
2016-02-29T10:20:14.570Z,53.24
2016-02-29T10:21:14.556Z,53.24
2016-02-29T10:22:14.512Z,53.24
2016-02-29T10:23:14.498Z,53.14
2016-02-29T10:24:14.470Z,53.24
2016-02-29T10:25:14.473Z,53.24
2016-02-29T10:26:14.414Z,53.24
2016-02-29T10:27:14.400Z,53.24
2016-02-29T10:28:14.387Z,53.33
2016-02-29T10:29:14.406Z,53.05
2016-02-29T10:30:14.331Z,52.95
2016-02-29T10:31:14.302Z,52.57
2016-02-29T10:32:14.273Z,52.48
2016-02-29T10:33:14.244Z,52.48
2016-02-29T10:34:14.232Z,52.76
2016-02-29T10:35:14.235Z,52.38
2016-02-29T10:36:14.172Z,52.67
2016-02-29T10:37:14.144Z,52.57
2016-02-29T10:38:14.115Z,52.19
2016-02-29T10:39:14.086Z,52.28
2016-02-29T10:40:14.089Z,52.28
2016-02-29T10:41:14.044Z,52.28
2016-02-29T10:42:14.016Z,52.28
2016-02-29T10:43:14.019Z,52.28
2016-02-29T10:44:14.415Z,52.28
2016-02-29T10:45:13.946Z,52.28
2016-02-29T10:46:13.933Z,52.19
2016-02-29T10:47:13.905Z,52.28
2016-02-29T10:48:13.876Z,52.19
2016-02-29T10:49:13.848Z,52.09
2016-02-29T10:50:13.819Z,52.19
2016-02-29T10:51:13.806Z,52.38
2016-02-29T10:52:13.778Z,52.31
2016-02-29T10:53:13.765Z,52.03
2016-02-29T10:54:13.720Z,51.9
2016-02-29T10:55:13.707Z,51.9
2016-02-29T10:56:13.679Z,52.03
2016-02-29T10:57:13.650Z,52.12
2016-02-29T10:58:13.497Z,52.12
2016-02-29T10:59:13.609Z,51.93
2016-02-29T11:00:13.580Z,51.64
2016-02-29T11:01:13.567Z,51.64
2016-02-29T11:02:13.539Z,51.83
2016-02-29T11:03:13.495Z,51.74
2016-02-29T11:04:13.497Z,51.83
2016-02-29T11:05:13.442Z,51.93
2016-02-29T11:06:13.430Z,51.93
2016-02-29T11:07:13.398Z,52.03
2016-02-29T11:08:13.374Z,52.12
2016-02-29T11:09:13.319Z,51.45
2016-02-29T11:10:13.311Z,51.83
2016-02-29T11:11:13.255Z,51.83
2016-02-29T11:12:13.217Z,51.35
2016-02-29T11:13:13.060Z,51.26
2016-02-29T11:14:13.168Z,51.74
2016-02-29T11:15:13.135Z,51.83
2016-02-29T11:16:13.400Z,51.64
2016-02-29T11:17:13.087Z,51.54
2016-02-29T11:18:13.057Z,51.64
2016-02-29T11:19:13.042Z,51.54
2016-02-29T11:20:12.997Z,51.17
2016-02-29T11:21:12.983Z,51.35
2016-02-29T11:22:12.953Z,51.64
2016-02-29T11:23:12.924Z,51.45
2016-02-29T11:24:12.910Z,51.45
2016-02-29T11:25:12.881Z,51.07
2016-02-29T11:26:12.869Z,51.17
2016-02-29T11:27:12.839Z,51.07
2016-02-29T11:28:12.841Z,50.98
2016-02-29T11:29:12.796Z,50.88
2016-02-29T11:30:12.753Z,50.98
2016-02-29T11:31:12.723Z,51.07
2016-02-29T11:32:12.726Z,50.98
2016-02-29T11:33:12.900Z,50.98
2016-02-29T11:34:12.700Z,50.52
2016-02-29T11:35:12.625Z,50.69
2016-02-29T11:36:12.611Z,50.69
2016-02-29T11:37:12.583Z,50.78
2016-02-29T11:38:12.586Z,50.62
2016-02-29T11:39:12.526Z,50.78
2016-02-29T11:40:12.560Z,50.52
2016-02-29T11:41:12.485Z,50.62
2016-02-29T11:42:12.471Z,50.59
2016-02-29T11:43:12.458Z,50.43
2016-02-29T11:44:12.415Z,50.33
2016-02-29T11:45:12.417Z,50.81
2016-02-29T11:46:12.373Z,50.78
2016-02-29T11:47:12.343Z,50.33
2016-02-29T11:48:12.316Z,50.43
2016-02-29T11:49:12.303Z,50.62
2016-02-29T11:50:12.274Z,50.62
2016-02-29T11:51:12.262Z,50.62
2016-02-29T11:52:12.232Z,50.52
2016-02-29T11:53:12.235Z,50.43
2016-02-29T11:54:12.176Z,50.62
2016-02-29T11:55:12.163Z,50.43
2016-02-29T11:56:12.134Z,50.52
2016-02-29T11:57:12.106Z,50.33
2016-02-29T11:58:12.092Z,50.04
2016-02-29T11:59:12.080Z,50.33
2016-02-29T12:00:12.036Z,50.14
2016-02-29T12:01:12.007Z,50.14
2016-02-29T12:02:11.994Z,50.33
2016-02-29T12:03:11.966Z,50.24
2016-02-29T12:04:11.936Z,49.85
2016-02-29T12:05:11.924Z,49.85
2016-02-29T12:06:11.895Z,49.66
2016-02-29T12:07:11.867Z,50.04
2016-02-29T12:08:11.839Z,49.76
2016-02-29T12:09:11.825Z,50.04
2016-02-29T12:10:11.813Z,49.76
2016-02-29T12:11:11.768Z,49.76
2016-02-29T12:12:11.755Z,49.66
2016-02-29T12:13:11.743Z,49.57
2016-02-29T12:14:11.714Z,49.66
2016-02-29T12:15:11.685Z,49.76
2016-02-29T12:16:11.672Z,49.85
2016-02-29T12:17:11.644Z,49.76
2016-02-29T12:18:11.616Z,50.04
2016-02-29T12:19:11.587Z,49.57
2016-02-29T12:20:11.558Z,49.95
2016-02-29T12:21:11.546Z,49.28
2016-02-29T12:22:11.517Z,49.57
2016-02-29T12:23:11.488Z,49.18
2016-02-29T12:24:11.476Z,49.18
2016-02-29T12:25:11.446Z,49.18
2016-02-29T12:26:11.418Z,48.73
2016-02-29T12:27:11.405Z,49.02
2016-02-29T12:28:11.376Z,48.83
2016-02-29T12:29:11.364Z,48.54
2016-02-29T12:30:11.334Z,48.16
2016-02-29T12:31:11.322Z,48.54
2016-02-29T12:32:11.278Z,48.44
2016-02-29T12:33:11.280Z,48.35
2016-02-29T12:34:11.237Z,48.28
2016-02-29T12:35:11.223Z,48.47
2016-02-29T12:36:11.195Z,48.28
2016-02-29T12:37:10.433Z,48.44
2016-02-29T12:38:11.138Z,48.25
2016-02-29T12:39:11.109Z,48.44
2016-02-29T12:40:11.096Z,48.35
2016-02-29T12:41:11.069Z,48.28
2016-02-29T12:42:11.055Z,48.25
2016-02-29T12:43:11.027Z,47.87
2016-02-29T12:44:10.997Z,47.8
2016-02-29T12:45:10.985Z,47.52
2016-02-29T12:46:10.971Z,47.52
2016-02-29T12:47:10.944Z,47.52
2016-02-29T12:48:10.915Z,47.42
2016-02-29T12:49:10.886Z,47.23
2016-02-29T12:50:10.873Z,46.94
2016-02-29T12:51:10.845Z,46.94
2016-02-29T12:52:10.832Z,47.32
2016-02-29T12:53:10.804Z,47.32
2016-02-29T12:54:10.790Z,46.94
2016-02-29T12:55:10.762Z,47.03
2016-02-29T12:56:10.734Z,46.94
2016-02-29T12:57:10.720Z,47.23
2016-02-29T12:58:10.801Z,47.23
2016-02-29T12:59:10.662Z,47.03
2016-02-29T13:00:10.650Z,46.75
2016-02-29T13:01:10.622Z,46.84
2016-02-29T13:02:10.656Z,46.87
2016-02-29T13:03:10.564Z,46.67
2016-02-29T13:04:10.614Z,46.58
2016-02-29T13:05:10.529Z,46.58
2016-02-29T13:06:10.501Z,46.87
2016-02-29T13:07:10.472Z,46.87
2016-02-29T13:08:10.459Z,46.67
2016-02-29T13:09:10.430Z,45.91
2016-02-29T13:10:10.417Z,46.58
2016-02-29T13:11:10.404Z,46.67
2016-02-29T13:12:10.376Z,46.77
2016-02-29T13:13:10.348Z,46.2
2016-02-29T13:14:10.334Z,45.91
2016-02-29T13:15:10.306Z,45.91
2016-02-29T13:16:10.277Z,45.81
2016-02-29T13:17:10.280Z,45.81
2016-02-29T13:18:10.236Z,45.91
2016-02-29T13:19:10.208Z,45.91
2016-02-29T13:20:10.194Z,46.1
2016-02-29T13:21:10.166Z,46.1